createdAt,value
2023-03-20T00:00:35.826Z,87.53
2023-03-20T00:01:35.825Z,87.53
2023-03-20T00:02:35.824Z,87.53
2023-03-20T00:03:35.868Z,87.53
2023-03-20T00:04:35.899Z,87.53
2023-03-20T00:05:36.038Z,87.53
2023-03-20T00:06:35.827Z,87.53
2023-03-20T00:07:35.825Z,142.59
2023-03-20T00:08:35.840Z,153.88
2023-03-20T00:09:35.860Z,216
2023-03-20T00:10:35.818Z,177.88
2023-03-20T00:11:35.820Z,177.88
2023-03-20T00:12:35.817Z,177.88
2023-03-20T00:13:35.845Z,177.88
2023-03-20T00:14:35.831Z,177.88
2023-03-20T00:15:36.072Z,177.88
2023-03-20T00:16:35.822Z,177.88
2023-03-20T00:17:35.843Z,177.88
2023-03-20T00:18:35.832Z,177.88
2023-03-20T00:19:35.815Z,114.35
2023-03-20T00:20:36.149Z,103.06
2023-03-20T00:21:35.828Z,122.82
2023-03-20T00:22:35.832Z,169.41
2023-03-20T00:23:35.830Z,155.29
2023-03-20T00:24:35.839Z,145.41
2023-03-20T00:25:36.096Z,145.41
2023-03-20T00:26:35.845Z,145.41
2023-03-20T00:27:35.835Z,145.41
2023-03-20T00:28:35.830Z,145.41
2023-03-20T00:29:35.834Z,145.41
2023-03-20T00:30:35.845Z,145.41
2023-03-20T00:31:35.874Z,145.41
2023-03-20T00:32:35.867Z,145.41
2023-03-20T00:33:35.837Z,145.41
2023-03-20T00:34:35.852Z,145.41
2023-03-20T00:35:36.157Z,145.41
2023-03-20T00:36:35.848Z,145.41
2023-03-20T00:37:35.826Z,145.41
2023-03-20T00:38:35.853Z,145.41
2023-03-20T00:39:35.840Z,145.41
2023-03-20T00:40:35.837Z,145.41
2023-03-20T00:41:36.011Z,145.41
2023-03-20T00:42:35.834Z,145.41
2023-03-20T00:43:35.834Z,145.41
2023-03-20T00:44:35.827Z,145.41
2023-03-20T00:45:36.279Z,145.41
2023-03-20T00:46:35.860Z,145.41
2023-03-20T00:47:35.846Z,145.41
2023-03-20T00:48:35.838Z,145.41
2023-03-20T00:49:35.845Z,145.41
2023-03-20T00:50:35.833Z,145.41
2023-03-20T00:51:35.844Z,145.41
2023-03-20T00:52:35.841Z,145.41
2023-03-20T00:53:35.832Z,145.41
2023-03-20T00:54:35.838Z,145.41
2023-03-20T00:55:36.056Z,145.41
2023-03-20T00:56:35.848Z,145.41
2023-03-20T00:57:35.865Z,145.41
2023-03-20T00:58:35.844Z,145.41
2023-03-20T00:59:35.868Z,145.41
2023-03-20T01:00:35.918Z,145.41
2023-03-20T01:01:35.862Z,145.41
2023-03-20T01:02:35.870Z,145.41
2023-03-20T01:03:35.854Z,145.41
2023-03-20T01:04:35.871Z,145.41
2023-03-20T01:05:36.100Z,145.41
2023-03-20T01:06:35.858Z,145.41
2023-03-20T01:07:35.860Z,145.41
2023-03-20T01:08:35.858Z,145.41
2023-03-20T01:09:35.848Z,145.41
2023-03-20T01:10:35.857Z,145.41
2023-03-20T01:11:35.872Z,145.41
2023-03-20T01:12:35.850Z,145.41
2023-03-20T01:13:35.875Z,300.71
2023-03-20T01:14:35.842Z,295.06
2023-03-20T01:15:36.073Z,323.29
2023-03-20T01:16:35.942Z,293.65
2023-03-20T01:17:35.859Z,269.65
2023-03-20T01:18:35.866Z,304.94
2023-03-20T01:19:35.851Z,306.35
2023-03-20T01:20:35.846Z,249.88
2023-03-20T01:21:35.878Z,309.18
2023-03-20T01:22:35.863Z,15.53
2023-03-20T01:23:35.862Z,303.53
2023-03-20T01:24:35.851Z,279.53
2023-03-20T01:25:36.124Z,286.59
2023-03-20T01:26:35.871Z,302.12
2023-03-20T01:27:35.859Z,309.18
2023-03-20T01:28:35.849Z,286.59
2023-03-20T01:29:35.884Z,283.76
2023-03-20T01:30:35.850Z,259.76
2023-03-20T01:31:35.879Z,293.65
2023-03-20T01:32:35.914Z,279.53
2023-03-20T01:33:35.864Z,262.59
2023-03-20T01:34:35.874Z,258.35
2023-03-20T01:35:36.182Z,272.47
2023-03-20T01:36:35.846Z,286.59
2023-03-20T01:37:35.867Z,296.47
2023-03-20T01:38:35.864Z,289.41
2023-03-20T01:39:35.865Z,290.82
2023-03-20T01:40:35.860Z,282.35
2023-03-20T01:41:35.870Z,303.53
2023-03-20T01:42:35.851Z,300.71
2023-03-20T01:43:35.878Z,275.29
2023-03-20T01:44:35.874Z,288
2023-03-20T01:45:36.358Z,296.47
2023-03-20T01:46:35.858Z,293.65
2023-03-20T01:47:35.863Z,319.06
2023-03-20T01:48:35.851Z,297.88
2023-03-20T01:49:35.860Z,293.65
2023-03-20T01:50:35.858Z,272.47
2023-03-20T01:51:35.880Z,333.18
2023-03-20T01:52:35.871Z,341.65
2023-03-20T01:53:35.865Z,343.06
2023-03-20T01:54:35.850Z,328.94
2023-03-20T01:55:36.160Z,304.94
2023-03-20T01:56:35.864Z,328.94
2023-03-20T01:57:35.872Z,343.06
2023-03-20T01:58:35.866Z,306.35
2023-03-20T01:59:35.865Z,314.82
2023-03-20T02:00:35.869Z,323.29
2023-03-20T02:01:36.009Z,326.12
2023-03-20T02:02:35.860Z,340.24
2023-03-20T02:03:35.872Z,351.53
2023-03-20T02:04:35.962Z,333.18
2023-03-20T02:05:36.115Z,327.53
2023-03-20T02:06:35.867Z,350.12
2023-03-20T02:07:35.865Z,360
2023-03-20T02:08:35.861Z,327.53
2023-03-20T02:09:35.862Z,316.24
2023-03-20T02:10:35.878Z,331.76
2023-03-20T02:11:35.882Z,316.24
2023-03-20T02:12:35.891Z,333.18
2023-03-20T02:13:35.878Z,345.88
2023-03-20T02:14:35.875Z,9.88
2023-03-20T02:15:36.142Z,310.59
2023-03-20T02:16:35.965Z,295.06
2023-03-20T02:17:35.880Z,306.35
2023-03-20T02:18:35.863Z,345.88
2023-03-20T02:19:35.884Z,317.65
2023-03-20T02:20:35.861Z,306.35
2023-03-20T02:21:35.861Z,344.47
2023-03-20T02:22:35.866Z,307.76
2023-03-20T02:23:35.878Z,303.53
2023-03-20T02:24:35.872Z,307.76
2023-03-20T02:25:36.086Z,343.06
2023-03-20T02:26:35.866Z,285.18
2023-03-20T02:27:35.892Z,280.94
2023-03-20T02:28:35.868Z,306.35
2023-03-20T02:29:35.868Z,295.06
2023-03-20T02:30:35.925Z,300.71
2023-03-20T02:31:35.869Z,289.41
2023-03-20T02:32:35.927Z,285.18
2023-03-20T02:33:35.892Z,296.47
2023-03-20T02:34:35.901Z,299.29
2023-03-20T02:35:36.102Z,289.41
2023-03-20T02:36:35.869Z,321.88
2023-03-20T02:37:35.878Z,324.71
2023-03-20T02:38:35.884Z,283.76
2023-03-20T02:39:35.891Z,317.65
2023-03-20T02:40:35.897Z,300.71
2023-03-20T02:41:35.913Z,302.12
2023-03-20T02:42:35.871Z,292.24
2023-03-20T02:43:35.873Z,296.47
2023-03-20T02:44:35.919Z,304.94
2023-03-20T02:45:36.103Z,286.59
2023-03-20T02:46:35.981Z,271.06
2023-03-20T02:47:35.873Z,279.53
2023-03-20T02:48:35.877Z,285.18
2023-03-20T02:49:35.912Z,296.47
2023-03-20T02:50:35.892Z,307.76
2023-03-20T02:51:35.884Z,296.47
2023-03-20T02:52:35.880Z,304.94
2023-03-20T02:53:35.898Z,321.88
2023-03-20T02:54:35.889Z,327.53
2023-03-20T02:55:36.137Z,337.41
2023-03-20T02:56:35.877Z,336
2023-03-20T02:57:35.876Z,307.76
2023-03-20T02:58:35.891Z,337.41
2023-03-20T02:59:35.899Z,300.71
2023-03-20T03:00:35.876Z,271.06
2023-03-20T03:01:35.970Z,330.35
2023-03-20T03:02:35.909Z,347.29
2023-03-20T03:03:35.884Z,7.06
2023-03-20T03:04:35.877Z,7.06
2023-03-20T03:05:36.269Z,7.06
2023-03-20T03:06:35.883Z,1.41
2023-03-20T03:07:35.889Z,11.29
2023-03-20T03:08:35.882Z,16.94
2023-03-20T03:09:35.897Z,16.94
2023-03-20T03:10:35.889Z,16.94
2023-03-20T03:11:35.903Z,16.94
2023-03-20T03:12:35.889Z,16.94
2023-03-20T03:13:35.893Z,16.94
2023-03-20T03:14:35.897Z,16.94
2023-03-20T03:15:36.118Z,16.94
2023-03-20T03:16:35.897Z,16.94
2023-03-20T03:17:35.888Z,16.94
2023-03-20T03:18:35.924Z,16.94
2023-03-20T03:19:35.892Z,16.94
2023-03-20T03:20:35.887Z,16.94
2023-03-20T03:21:35.910Z,16.94
2023-03-20T03:22:35.887Z,16.94
2023-03-20T03:23:35.894Z,16.94
2023-03-20T03:24:42.025Z,16.94
2023-03-20T03:25:36.179Z,16.94
2023-03-20T03:26:35.895Z,16.94
2023-03-20T03:27:35.886Z,16.94
2023-03-20T03:28:35.898Z,16.94
2023-03-20T03:29:35.911Z,16.94
2023-03-20T03:30:35.894Z,16.94
2023-03-20T03:31:35.943Z,16.94
2023-03-20T03:32:35.974Z,16.94
2023-03-20T03:33:35.890Z,16.94
2023-03-20T03:34:35.894Z,16.94
2023-03-20T03:35:36.167Z,16.94
2023-03-20T03:36:35.880Z,16.94
2023-03-20T03:37:35.909Z,16.94
2023-03-20T03:38:35.887Z,16.94
2023-03-20T03:39:35.900Z,16.94
2023-03-20T03:40:35.896Z,16.94
2023-03-20T03:41:35.893Z,16.94
2023-03-20T03:42:35.895Z,16.94
2023-03-20T03:43:35.897Z,16.94
2023-03-20T03:44:35.907Z,16.94
2023-03-20T03:45:36.097Z,16.94
2023-03-20T03:46:35.980Z,16.94
2023-03-20T03:47:35.893Z,16.94
2023-03-20T03:48:35.883Z,16.94
2023-03-20T03:49:35.896Z,16.94
2023-03-20T03:50:35.899Z,16.94
2023-03-20T03:51:35.899Z,16.94
2023-03-20T03:52:35.892Z,16.94
2023-03-20T03:53:35.926Z,16.94
2023-03-20T03:54:35.920Z,16.94
2023-03-20T03:55:36.173Z,16.94
2023-03-20T03:56:35.920Z,16.94
2023-03-20T03:57:35.918Z,16.94
2023-03-20T03:58:35.914Z,16.94
2023-03-20T03:59:35.890Z,16.94
2023-03-20T04:00:35.918Z,16.94
2023-03-20T04:01:35.972Z,16.94
2023-03-20T04:02:35.902Z,16.94
2023-03-20T04:03:35.915Z,16.94
2023-03-20T04:04:35.971Z,16.94
2023-03-20T04:05:36.115Z,16.94
2023-03-20T04:06:35.896Z,16.94
2023-03-20T04:07:35.911Z,16.94
2023-03-20T04:08:35.907Z,16.94
2023-03-20T04:09:35.921Z,16.94
2023-03-20T04:10:35.908Z,16.94
2023-03-20T04:11:35.903Z,16.94
2023-03-20T04:12:35.914Z,16.94
2023-03-20T04:13:35.902Z,16.94
2023-03-20T04:14:35.924Z,16.94
2023-03-20T04:15:36.176Z,16.94
2023-03-20T04:16:35.951Z,16.94
2023-03-20T04:17:35.904Z,16.94
2023-03-20T04:18:35.902Z,16.94
2023-03-20T04:19:35.907Z,16.94
2023-03-20T04:20:35.908Z,16.94
2023-03-20T04:21:35.908Z,16.94
2023-03-20T04:22:35.909Z,16.94
2023-03-20T04:23:35.902Z,16.94
2023-03-20T04:24:35.903Z,16.94
2023-03-20T04:25:36.208Z,16.94
2023-03-20T04:26:35.907Z,16.94
2023-03-20T04:27:35.946Z,16.94
2023-03-20T04:28:35.908Z,16.94
2023-03-20T04:29:38.153Z,16.94
2023-03-20T04:30:35.933Z,16.94
2023-03-20T04:31:36.011Z,16.94
2023-03-20T04:32:35.953Z,16.94
2023-03-20T04:33:35.908Z,16.94
2023-03-20T04:34:35.902Z,16.94
2023-03-20T04:35:36.316Z,16.94
2023-03-20T04:36:35.916Z,16.94
2023-03-20T04:37:35.906Z,16.94
2023-03-20T04:38:35.909Z,16.94
2023-03-20T04:39:35.924Z,16.94
2023-03-20T04:40:35.906Z,16.94
2023-03-20T04:41:35.936Z,16.94
2023-03-20T04:42:35.910Z,16.94
2023-03-20T04:43:35.912Z,16.94
2023-03-20T04:44:35.906Z,16.94
2023-03-20T04:45:36.167Z,16.94
2023-03-20T04:46:35.920Z,16.94
2023-03-20T04:47:35.926Z,16.94
2023-03-20T04:48:35.929Z,16.94
2023-03-20T04:49:35.907Z,16.94
2023-03-20T04:50:35.914Z,16.94
2023-03-20T04:51:35.919Z,16.94
2023-03-20T04:52:35.917Z,16.94
2023-03-20T04:53:35.910Z,16.94
2023-03-20T04:54:35.913Z,16.94
2023-03-20T04:55:36.171Z,16.94
2023-03-20T04:56:35.920Z,16.94
2023-03-20T04:57:35.934Z,16.94
2023-03-20T04:58:35.928Z,16.94
2023-03-20T04:59:35.921Z,16.94
2023-03-20T05:00:35.912Z,16.94
2023-03-20T05:01:35.920Z,16.94
2023-03-20T05:02:35.919Z,16.94
2023-03-20T05:03:35.925Z,16.94
2023-03-20T05:04:35.916Z,16.94
2023-03-20T05:05:36.140Z,16.94
2023-03-20T05:06:35.947Z,16.94
2023-03-20T05:07:35.920Z,16.94
2023-03-20T05:08:35.912Z,16.94
2023-03-20T05:09:35.928Z,16.94
2023-03-20T05:10:35.915Z,16.94
2023-03-20T05:11:35.918Z,16.94
2023-03-20T05:12:35.916Z,16.94
2023-03-20T05:13:35.953Z,16.94
2023-03-20T05:14:35.917Z,16.94
2023-03-20T05:15:36.114Z,16.94
2023-03-20T05:16:35.938Z,16.94
2023-03-20T05:17:35.962Z,16.94
2023-03-20T05:18:35.910Z,16.94
2023-03-20T05:19:35.920Z,16.94
2023-03-20T05:20:35.921Z,16.94
2023-03-20T05:21:35.914Z,16.94
2023-03-20T05:22:35.924Z,16.94
2023-03-20T05:23:35.921Z,16.94
2023-03-20T05:24:35.923Z,16.94
2023-03-20T05:25:36.280Z,16.94
2023-03-20T05:26:35.922Z,16.94
2023-03-20T05:27:35.928Z,16.94
2023-03-20T05:28:35.917Z,16.94
2023-03-20T05:29:35.955Z,16.94
2023-03-20T05:30:35.977Z,16.94
2023-03-20T05:31:35.922Z,16.94
2023-03-20T05:32:36.004Z,16.94
2023-03-20T05:33:38.029Z,16.94
2023-03-20T05:34:35.933Z,16.94
2023-03-20T05:35:36.211Z,16.94
2023-03-20T05:36:35.929Z,16.94
2023-03-20T05:37:35.933Z,16.94
2023-03-20T05:38:35.923Z,16.94
2023-03-20T05:39:35.930Z,16.94
2023-03-20T05:40:35.926Z,16.94
2023-03-20T05:41:35.936Z,16.94
2023-03-20T05:42:35.940Z,16.94
2023-03-20T05:43:35.935Z,16.94
2023-03-20T05:44:35.933Z,16.94
2023-03-20T05:45:36.198Z,16.94
2023-03-20T05:46:35.947Z,16.94
2023-03-20T05:47:35.926Z,16.94
2023-03-20T05:48:35.927Z,16.94
2023-03-20T05:49:35.936Z,16.94
2023-03-20T05:50:35.931Z,16.94
2023-03-20T05:51:35.942Z,16.94
2023-03-20T05:52:35.926Z,16.94
2023-03-20T05:53:35.939Z,16.94
2023-03-20T05:54:35.935Z,16.94
2023-03-20T05:55:36.231Z,16.94
2023-03-20T05:56:35.974Z,16.94
2023-03-20T05:57:35.943Z,16.94
2023-03-20T05:58:35.952Z,16.94
2023-03-20T05:59:35.951Z,16.94
2023-03-20T06:00:35.944Z,16.94
2023-03-20T06:01:35.950Z,16.94
2023-03-20T06:02:35.935Z,16.94
2023-03-20T06:03:35.972Z,16.94
2023-03-20T06:04:35.934Z,16.94
2023-03-20T06:05:36.202Z,16.94
2023-03-20T06:06:35.938Z,16.94
2023-03-20T06:07:35.950Z,16.94
2023-03-20T06:08:35.941Z,16.94
2023-03-20T06:09:35.970Z,16.94
2023-03-20T06:10:35.952Z,16.94
2023-03-20T06:11:37.516Z,16.94
2023-03-20T06:12:35.950Z,16.94
2023-03-20T06:13:35.953Z,16.94
2023-03-20T06:14:35.947Z,16.94
2023-03-20T06:15:36.264Z,16.94
2023-03-20T06:16:35.947Z,16.94
2023-03-20T06:17:35.972Z,16.94
2023-03-20T06:18:35.950Z,16.94
2023-03-20T06:19:35.947Z,16.94
2023-03-20T06:20:35.948Z,16.94
2023-03-20T06:21:35.957Z,16.94
2023-03-20T06:22:35.947Z,16.94
2023-03-20T06:23:35.948Z,16.94
2023-03-20T06:24:35.957Z,16.94
2023-03-20T06:25:36.227Z,16.94
2023-03-20T06:26:35.969Z,16.94
2023-03-20T06:27:35.945Z,16.94
2023-03-20T06:28:35.952Z,16.94
2023-03-20T06:29:35.952Z,16.94
2023-03-20T06:30:35.947Z,16.94
2023-03-20T06:31:36.012Z,16.94
2023-03-20T06:32:36.049Z,16.94
2023-03-20T06:33:35.978Z,16.94
2023-03-20T06:34:35.969Z,16.94
2023-03-20T06:35:36.234Z,16.94
2023-03-20T06:36:35.953Z,16.94
2023-03-20T06:37:35.974Z,16.94
2023-03-20T06:38:35.955Z,16.94
2023-03-20T06:39:35.973Z,16.94
2023-03-20T06:40:35.958Z,16.94
2023-03-20T06:41:35.956Z,16.94
2023-03-20T06:42:35.953Z,16.94
2023-03-20T06:43:35.988Z,16.94
2023-03-20T06:44:35.977Z,16.94
2023-03-20T06:45:36.202Z,16.94
2023-03-20T06:46:36.089Z,16.94
2023-03-20T06:47:35.948Z,16.94
2023-03-20T06:48:35.946Z,16.94
2023-03-20T06:49:35.989Z,16.94
2023-03-20T06:50:35.949Z,16.94
2023-03-20T06:51:35.952Z,16.94
2023-03-20T06:52:35.958Z,16.94
2023-03-20T06:53:35.962Z,16.94
2023-03-20T06:54:35.958Z,16.94
2023-03-20T06:55:36.234Z,16.94
2023-03-20T06:56:35.964Z,16.94
2023-03-20T06:57:35.971Z,16.94
2023-03-20T06:58:35.959Z,16.94
2023-03-20T06:59:35.955Z,16.94
2023-03-20T07:00:35.960Z,16.94
2023-03-20T07:01:36.035Z,16.94
2023-03-20T07:02:35.965Z,16.94
2023-03-20T07:03:35.978Z,16.94
2023-03-20T07:04:36.004Z,16.94
2023-03-20T07:05:36.271Z,16.94
2023-03-20T07:06:35.966Z,16.94
2023-03-20T07:07:35.964Z,16.94
2023-03-20T07:08:35.973Z,16.94
2023-03-20T07:09:35.972Z,16.94
2023-03-20T07:10:35.965Z,16.94
2023-03-20T07:11:35.967Z,16.94
2023-03-20T07:12:35.971Z,16.94
2023-03-20T07:13:35.971Z,16.94
2023-03-20T07:14:35.983Z,16.94
2023-03-20T07:15:36.209Z,16.94
2023-03-20T07:16:36.057Z,16.94
2023-03-20T07:17:35.975Z,16.94
2023-03-20T07:18:35.993Z,16.94
2023-03-20T07:19:38.004Z,16.94
2023-03-20T07:20:35.991Z,16.94
2023-03-20T07:21:35.990Z,16.94
2023-03-20T07:22:35.973Z,16.94
2023-03-20T07:23:35.983Z,16.94
2023-03-20T07:24:35.979Z,16.94
2023-03-20T07:25:42.725Z,16.94
2023-03-20T07:26:35.991Z,16.94
2023-03-20T07:27:35.995Z,16.94
2023-03-20T07:28:35.972Z,16.94
2023-03-20T07:29:35.986Z,16.94
2023-03-20T07:30:35.998Z,16.94
2023-03-20T07:31:36.086Z,16.94
2023-03-20T07:32:37.695Z,16.94
2023-03-20T07:33:35.975Z,16.94
2023-03-20T07:34:36.010Z,16.94
2023-03-20T07:35:36.358Z,16.94
2023-03-20T07:36:35.975Z,16.94
2023-03-20T07:37:36.045Z,16.94
2023-03-20T07:38:35.972Z,16.94
2023-03-20T07:39:35.980Z,16.94
2023-03-20T07:40:35.968Z,16.94
2023-03-20T07:41:35.978Z,16.94
2023-03-20T07:42:35.986Z,16.94
2023-03-20T07:43:35.981Z,16.94
2023-03-20T07:44:35.996Z,16.94
2023-03-20T07:45:36.244Z,16.94
2023-03-20T07:46:35.979Z,16.94
2023-03-20T07:47:36.009Z,16.94
2023-03-20T07:48:35.984Z,16.94
2023-03-20T07:49:36.019Z,16.94
2023-03-20T07:50:35.980Z,16.94
2023-03-20T07:51:35.969Z,16.94
2023-03-20T07:52:36.013Z,16.94
2023-03-20T07:53:36.006Z,16.94
2023-03-20T07:54:35.978Z,16.94
2023-03-20T07:55:36.203Z,16.94
2023-03-20T07:56:35.975Z,16.94
2023-03-20T07:57:35.982Z,16.94
2023-03-20T07:58:35.993Z,16.94
2023-03-20T07:59:35.973Z,16.94
2023-03-20T08:00:35.986Z,16.94
2023-03-20T08:01:35.989Z,16.94
2023-03-20T08:02:36.028Z,16.94
2023-03-20T08:03:36.134Z,16.94
2023-03-20T08:04:35.996Z,16.94
2023-03-20T08:05:36.267Z,16.94
2023-03-20T08:06:35.991Z,16.94
2023-03-20T08:07:35.988Z,16.94
2023-03-20T08:08:36.005Z,16.94
2023-03-20T08:09:35.999Z,16.94
2023-03-20T08:10:35.988Z,16.94
2023-03-20T08:11:35.983Z,16.94
2023-03-20T08:12:35.977Z,16.94
2023-03-20T08:13:36.019Z,16.94
2023-03-20T08:14:36.314Z,16.94
2023-03-20T08:15:36.226Z,16.94
2023-03-20T08:16:36.050Z,16.94
2023-03-20T08:17:36.042Z,16.94
2023-03-20T08:18:35.999Z,16.94
2023-03-20T08:19:35.997Z,16.94
2023-03-20T08:20:36.008Z,16.94
2023-03-20T08:21:36.021Z,16.94
2023-03-20T08:22:36.019Z,16.94
2023-03-20T08:23:36.001Z,16.94
2023-03-20T08:24:36.028Z,16.94
2023-03-20T08:25:36.326Z,16.94
2023-03-20T08:26:36.001Z,16.94
2023-03-20T08:27:36.069Z,16.94
2023-03-20T08:28:46.876Z,16.94
2023-03-20T08:29:36.025Z,16.94
2023-03-20T08:30:36.033Z,16.94
2023-03-20T08:31:36.013Z,16.94
2023-03-20T08:32:36.060Z,16.94
2023-03-20T08:33:36.007Z,16.94
2023-03-20T08:34:36.007Z,16.94
2023-03-20T08:35:36.062Z,16.94
2023-03-20T08:36:36.022Z,16.94
2023-03-20T08:37:36.018Z,16.94
2023-03-20T08:38:36.071Z,16.94
2023-03-20T08:39:36.018Z,16.94
2023-03-20T08:40:36.019Z,16.94
2023-03-20T08:41:36.038Z,16.94
2023-03-20T08:42:36.015Z,16.94
2023-03-20T08:43:36.045Z,16.94
2023-03-20T08:44:36.010Z,16.94
2023-03-20T08:45:36.280Z,16.94
2023-03-20T08:46:36.048Z,16.94
2023-03-20T08:47:36.021Z,16.94
2023-03-20T08:48:36.023Z,16.94
2023-03-20T08:49:36.014Z,16.94
2023-03-20T08:50:36.012Z,16.94
2023-03-20T08:51:36.016Z,16.94
2023-03-20T08:52:36.049Z,16.94
2023-03-20T08:53:36.022Z,16.94
2023-03-20T08:54:36.007Z,16.94
2023-03-20T08:55:36.286Z,16.94
2023-03-20T08:56:36.037Z,16.94
2023-03-20T08:57:36.041Z,16.94
2023-03-20T08:58:36.039Z,16.94
2023-03-20T08:59:36.013Z,16.94
2023-03-20T09:00:36.017Z,16.94
2023-03-20T09:01:48.561Z,16.94
2023-03-20T09:02:36.156Z,16.94
2023-03-20T09:03:36.021Z,16.94
2023-03-20T09:04:36.020Z,16.94
2023-03-20T09:05:36.265Z,16.94
2023-03-20T09:06:36.020Z,16.94
2023-03-20T09:07:36.034Z,16.94
2023-03-20T09:08:36.024Z,16.94
2023-03-20T09:09:36.024Z,16.94
2023-03-20T09:10:36.028Z,16.94
2023-03-20T09:11:36.020Z,16.94
2023-03-20T09:12:36.041Z,16.94
2023-03-20T09:13:36.058Z,16.94
2023-03-20T09:14:36.021Z,16.94
2023-03-20T09:15:36.383Z,16.94
2023-03-20T09:16:36.193Z,16.94
2023-03-20T09:17:36.014Z,16.94
2023-03-20T09:18:36.079Z,16.94
2023-03-20T09:19:36.033Z,16.94
2023-03-20T09:20:36.226Z,16.94
2023-03-20T09:21:36.024Z,16.94
2023-03-20T09:22:36.025Z,16.94
2023-03-20T09:23:36.034Z,16.94
2023-03-20T09:24:36.029Z,16.94
2023-03-20T09:25:36.352Z,16.94
2023-03-20T09:26:36.036Z,16.94
2023-03-20T09:27:36.031Z,16.94
2023-03-20T09:28:36.035Z,16.94
2023-03-20T09:29:36.057Z,16.94
2023-03-20T09:30:36.269Z,16.94
2023-03-20T09:31:36.105Z,16.94
2023-03-20T09:32:36.127Z,16.94
2023-03-20T09:33:36.032Z,16.94
2023-03-20T09:34:36.041Z,16.94
2023-03-20T09:35:36.056Z,16.94
2023-03-20T09:36:36.027Z,16.94
2023-03-20T09:37:36.041Z,16.94
2023-03-20T09:38:36.030Z,16.94
2023-03-20T09:39:36.035Z,16.94
2023-03-20T09:40:36.345Z,16.94
2023-03-20T09:41:45.761Z,16.94
2023-03-20T09:42:36.046Z,16.94
2023-03-20T09:43:36.043Z,16.94
2023-03-20T09:44:36.042Z,16.94
2023-03-20T09:45:36.055Z,16.94
2023-03-20T09:46:36.121Z,16.94
2023-03-20T09:47:36.059Z,16.94
2023-03-20T09:48:36.038Z,16.94
2023-03-20T09:49:36.042Z,16.94
2023-03-20T09:50:36.308Z,16.94
2023-03-20T09:51:36.046Z,16.94
2023-03-20T09:52:36.039Z,16.94
2023-03-20T09:53:36.056Z,16.94
2023-03-20T09:54:50.973Z,16.94
2023-03-20T09:55:36.489Z,16.94
2023-03-20T09:56:36.026Z,16.94
2023-03-20T09:57:36.064Z,16.94
2023-03-20T09:58:36.047Z,16.94
2023-03-20T09:59:36.039Z,16.94
2023-03-20T10:00:36.368Z,16.94
2023-03-20T10:01:38.365Z,16.94
2023-03-20T10:02:36.059Z,16.94
2023-03-20T10:03:36.057Z,16.94
2023-03-20T10:04:36.076Z,16.94
2023-03-20T10:05:36.213Z,16.94
2023-03-20T10:06:36.058Z,16.94
2023-03-20T10:07:36.039Z,16.94
2023-03-20T10:08:36.041Z,16.94
2023-03-20T10:09:36.045Z,16.94
2023-03-20T10:10:36.304Z,16.94
2023-03-20T10:11:36.057Z,16.94
2023-03-20T10:12:36.056Z,16.94
2023-03-20T10:13:36.052Z,16.94
2023-03-20T10:14:36.049Z,16.94
2023-03-20T10:15:36.047Z,16.94
2023-03-20T10:16:36.084Z,16.94
2023-03-20T10:17:36.090Z,16.94
2023-03-20T10:18:36.056Z,16.94
2023-03-20T10:19:36.064Z,16.94
2023-03-20T10:20:36.391Z,16.94
2023-03-20T10:21:36.056Z,16.94
2023-03-20T10:22:36.046Z,16.94
2023-03-20T10:23:36.076Z,16.94
2023-03-20T10:24:36.054Z,16.94
2023-03-20T10:25:36.056Z,16.94
2023-03-20T10:26:36.061Z,16.94
2023-03-20T10:27:36.070Z,266.82
2023-03-20T10:28:36.050Z,258.35
2023-03-20T10:29:36.063Z,220.24
2023-03-20T10:30:36.286Z,170.82
2023-03-20T10:31:36.093Z,170.82
2023-03-20T10:32:36.147Z,170.82
2023-03-20T10:33:36.101Z,170.82
2023-03-20T10:34:36.068Z,170.82
2023-03-20T10:35:36.074Z,170.82
2023-03-20T10:36:36.087Z,170.82
2023-03-20T10:37:36.057Z,170.82
2023-03-20T10:38:36.053Z,170.82
2023-03-20T10:39:36.067Z,170.82
2023-03-20T10:40:36.317Z,170.82
2023-03-20T10:41:36.067Z,170.82
2023-03-20T10:42:36.054Z,170.82
2023-03-20T10:43:38.905Z,79.06
2023-03-20T10:44:36.065Z,79.06
2023-03-20T10:45:36.072Z,79.06
2023-03-20T10:46:36.113Z,211.76
2023-03-20T10:47:36.071Z,201.88
2023-03-20T10:48:36.071Z,207.53
2023-03-20T10:49:36.078Z,203.29
2023-03-20T10:50:36.350Z,214.59
2023-03-20T10:51:36.102Z,192
2023-03-20T10:52:36.068Z,192
2023-03-20T10:53:36.072Z,192
2023-03-20T10:54:36.064Z,192
2023-03-20T10:55:36.070Z,192
2023-03-20T10:56:36.089Z,184.94
2023-03-20T10:57:36.090Z,162.35
2023-03-20T10:58:36.072Z,163.76
2023-03-20T10:59:36.064Z,169.41
2023-03-20T11:00:36.196Z,172.24
2023-03-20T11:01:36.147Z,146.82
2023-03-20T11:02:36.067Z,184.94
2023-03-20T11:03:36.069Z,145.41
2023-03-20T11:04:36.123Z,145.41
2023-03-20T11:05:36.093Z,156.71
2023-03-20T11:06:36.073Z,139.76
2023-03-20T11:07:36.099Z,139.76
2023-03-20T11:08:36.063Z,139.76
2023-03-20T11:09:36.068Z,139.76
2023-03-20T11:10:36.368Z,139.76
2023-03-20T11:11:36.085Z,139.76
2023-03-20T11:12:36.069Z,139.76
2023-03-20T11:13:36.081Z,139.76
2023-03-20T11:14:36.078Z,139.76
2023-03-20T11:15:36.075Z,139.76
2023-03-20T11:16:36.100Z,139.76
2023-03-20T11:17:36.082Z,139.76
2023-03-20T11:18:36.069Z,208.94
2023-03-20T11:19:36.102Z,218.82
2023-03-20T11:20:36.341Z,242.82
2023-03-20T11:21:36.100Z,213.18
2023-03-20T11:22:36.080Z,213.18
2023-03-20T11:23:36.082Z,213.18
2023-03-20T11:24:36.074Z,213.18
2023-03-20T11:25:36.083Z,213.18
2023-03-20T11:26:36.094Z,213.18
2023-03-20T11:27:36.097Z,213.18
2023-03-20T11:28:36.129Z,213.18
2023-03-20T11:29:36.092Z,213.18
2023-03-20T11:30:36.262Z,163.76
2023-03-20T11:31:36.136Z,163.76
2023-03-20T11:32:36.191Z,163.76
2023-03-20T11:33:36.088Z,163.76
2023-03-20T11:34:36.087Z,163.76
2023-03-20T11:35:36.171Z,163.76
2023-03-20T11:36:36.090Z,163.76
2023-03-20T11:37:36.106Z,163.76
2023-03-20T11:38:36.098Z,163.76
2023-03-20T11:39:36.098Z,163.76
2023-03-20T11:40:36.289Z,163.76
2023-03-20T11:41:36.085Z,163.76
2023-03-20T11:42:36.095Z,163.76
2023-03-20T11:43:36.085Z,163.76
2023-03-20T11:44:36.088Z,163.76
2023-03-20T11:45:36.136Z,163.76
2023-03-20T11:46:36.092Z,163.76
2023-03-20T11:47:36.120Z,163.76
2023-03-20T11:48:36.100Z,163.76
2023-03-20T11:49:36.091Z,163.76
2023-03-20T11:50:36.415Z,163.76
2023-03-20T11:51:36.100Z,163.76
2023-03-20T11:52:36.093Z,163.76
2023-03-20T11:53:36.114Z,163.76
2023-03-20T11:54:36.105Z,163.76
2023-03-20T11:55:36.087Z,163.76
2023-03-20T11:56:36.094Z,163.76
2023-03-20T11:57:36.100Z,163.76
2023-03-20T11:58:36.096Z,163.76
2023-03-20T11:59:36.123Z,163.76
2023-03-20T12:00:36.544Z,163.76
2023-03-20T12:01:36.095Z,163.76
2023-03-20T12:02:36.180Z,163.76
2023-03-20T12:03:36.128Z,163.76
2023-03-20T12:04:36.103Z,163.76
2023-03-20T12:05:36.110Z,163.76
2023-03-20T12:06:36.118Z,163.76
2023-03-20T12:07:36.111Z,163.76
2023-03-20T12:08:36.108Z,127.06
2023-03-20T12:09:36.120Z,158.12
2023-03-20T12:10:36.368Z,156.71
2023-03-20T12:11:36.119Z,125.65
2023-03-20T12:12:36.104Z,121.41
2023-03-20T12:13:36.105Z,121.41
2023-03-20T12:14:36.127Z,121.41
2023-03-20T12:15:36.191Z,121.41
2023-03-20T12:16:36.120Z,121.41
2023-03-20T12:17:36.136Z,121.41
2023-03-20T12:18:36.105Z,210.35
2023-03-20T12:19:36.113Z,210.35
2023-03-20T12:20:36.438Z,210.35
2023-03-20T12:21:36.134Z,210.35
2023-03-20T12:22:36.137Z,244.24
2023-03-20T12:23:36.104Z,252.71
2023-03-20T12:24:36.113Z,235.76
2023-03-20T12:25:36.167Z,194.82
2023-03-20T12:26:36.112Z,194.82
2023-03-20T12:27:36.109Z,194.82
2023-03-20T12:28:36.124Z,194.82
2023-03-20T12:29:36.111Z,194.82
2023-03-20T12:30:36.433Z,261.18
2023-03-20T12:31:36.248Z,266.82
2023-03-20T12:32:36.186Z,242.82
2023-03-20T12:33:36.111Z,128.47
2023-03-20T12:34:36.124Z,197.65
2023-03-20T12:35:36.162Z,227.29
2023-03-20T12:36:36.111Z,172.24
2023-03-20T12:37:36.120Z,172.24
2023-03-20T12:38:36.118Z,172.24
2023-03-20T12:39:36.105Z,131.29
2023-03-20T12:40:36.291Z,131.29
2023-03-20T12:41:36.141Z,131.29
2023-03-20T12:42:36.114Z,131.29
2023-03-20T12:43:36.114Z,131.29